createdAt,value
2017-11-15T00:01:23.657Z,22.50
2017-11-15T00:03:52.533Z,20.97
2017-11-15T00:06:20.622Z,23.30
2017-11-15T00:08:49.476Z,22.90
2017-11-15T00:11:17.589Z,20.50
2017-11-15T00:13:45.667Z,23.47
2017-11-15T00:16:14.097Z,21.90
2017-11-15T00:18:42.173Z,25.03
2017-11-15T00:21:10.266Z,23.00
2017-11-15T00:23:38.433Z,23.57
2017-11-15T00:26:06.726Z,23.30
2017-11-15T00:28:34.962Z,21.80
2017-11-15T00:31:03.034Z,23.13
2017-11-15T00:33:31.110Z,21.97
2017-11-15T00:35:59.234Z,20.50
2017-11-15T00:38:27.341Z,22.00
2017-11-15T00:40:55.460Z,21.40
2017-11-15T00:43:23.533Z,23.70
2017-11-15T00:45:52.403Z,19.67
2017-11-15T00:48:20.515Z,22.10
2017-11-15T00:50:48.672Z,20.23
2017-11-15T00:53:16.944Z,18.73
2017-11-15T00:55:45.062Z,20.40
2017-11-15T00:58:13.136Z,20.70
2017-11-15T01:00:41.369Z,21.07
2017-11-15T01:03:10.212Z,22.50
2017-11-15T01:05:38.294Z,19.90
2017-11-15T01:08:06.392Z,21.13
2017-11-15T01:10:34.480Z,22.20
2017-11-15T01:13:02.581Z,20.37
2017-11-15T01:15:30.661Z,20.50
2017-11-15T01:17:58.793Z,20.93
2017-11-15T01:20:26.881Z,19.30
2017-11-15T01:22:55.926Z,20.00
2017-11-15T01:25:24.050Z,21.13
2017-11-15T01:27:52.171Z,20.40
2017-11-15T01:30:20.272Z,21.80
2017-11-15T01:32:49.161Z,20.07
2017-11-15T01:35:17.401Z,20.20
2017-11-15T01:37:45.477Z,21.67
2017-11-15T01:40:13.746Z,19.83
2017-11-15T01:42:41.838Z,21.03
2017-11-15T01:45:10.583Z,22.03
2017-11-15T01:47:39.340Z,21.80
2017-11-15T01:50:08.181Z,21.37
2017-11-15T01:52:36.492Z,20.57
2017-11-15T01:55:04.616Z,22.03
2017-11-15T01:57:32.697Z,20.90
2017-11-15T02:00:00.850Z,19.93
2017-11-15T02:02:28.985Z,22.03
2017-11-15T02:04:57.164Z,21.80
2017-11-15T02:07:25.297Z,20.90
2017-11-15T02:09:53.381Z,20.63
2017-11-15T02:12:21.893Z,21.73
2017-11-15T02:14:51.849Z,21.10
2017-11-15T02:17:20.041Z,22.13
2017-11-15T02:19:48.137Z,20.07
2017-11-15T02:22:16.240Z,22.10
2017-11-15T02:24:45.131Z,23.37
2017-11-15T02:27:14.332Z,20.50
2017-11-15T02:29:42.445Z,21.03
2017-11-15T02:32:10.540Z,20.97
2017-11-15T02:34:38.651Z,20.93
2017-11-15T02:37:07.477Z,20.83
2017-11-15T02:39:36.709Z,22.50
2017-11-15T02:42:04.897Z,19.57
2017-11-15T02:44:33.785Z,21.97
2017-11-15T02:47:02.635Z,21.30
2017-11-15T02:49:30.796Z,21.37
2017-11-15T02:51:59.453Z,20.67
2017-11-15T02:54:28.341Z,21.43
2017-11-15T02:56:56.446Z,23.33
2017-11-15T02:59:25.649Z,23.20
2017-11-15T03:01:53.753Z,22.53
2017-11-15T03:04:21.838Z,23.27
2017-11-15T03:06:50.844Z,22.67
2017-11-15T03:09:19.754Z,22.80
2017-11-15T03:11:47.851Z,24.43
2017-11-15T03:14:15.960Z,24.10
2017-11-15T03:16:44.040Z,25.97
2017-11-15T03:19:12.289Z,24.43
2017-11-15T03:21:40.453Z,24.73
2017-11-15T03:24:08.545Z,23.60
2017-11-15T03:26:36.648Z,24.13
2017-11-15T03:29:05.549Z,26.47
2017-11-15T03:31:34.421Z,25.47
2017-11-15T03:34:02.501Z,25.30
2017-11-15T03:36:31.877Z,26.90
2017-11-15T03:38:59.956Z,24.87
2017-11-15T03:41:29.193Z,25.37
2017-11-15T03:43:57.506Z,26.03
2017-11-15T03:46:25.609Z,27.63
2017-11-15T03:48:53.699Z,25.73
2017-11-15T03:51:21.789Z,26.50
2017-11-15T03:53:49.899Z,25.80
2017-11-15T03:56:17.992Z,26.70
2017-11-15T03:58:46.106Z,27.93
2017-11-15T04:01:14.253Z,28.33
2017-11-15T04:03:43.098Z,28.37
2017-11-15T04:06:12.188Z,27.23
2017-11-15T04:08:41.069Z,28.47
2017-11-15T04:11:09.300Z,28.83
2017-11-15T04:13:37.374Z,27.63
2017-11-15T04:16:05.485Z,28.93
2017-11-15T04:18:33.585Z,28.50
2017-11-15T04:21:01.661Z,26.37
2017-11-15T04:23:29.768Z,27.83
2017-11-15T04:25:57.854Z,28.30
2017-11-15T04:28:26.696Z,27.03
2017-11-15T04:30:55.594Z,26.60
2017-11-15T04:33:23.682Z,25.40
2017-11-15T04:35:52.155Z,27.30
2017-11-15T04:38:20.261Z,25.37
2017-11-15T04:40:48.357Z,26.57
2017-11-15T04:43:16.466Z,24.80
2017-11-15T04:45:44.581Z,24.60
2017-11-15T04:48:13.425Z,24.63
2017-11-15T04:50:42.163Z,23.13
2017-11-15T04:53:10.520Z,25.40
2017-11-15T04:55:38.616Z,25.10
2017-11-15T04:58:07.069Z,25.33
2017-11-15T05:00:35.924Z,25.30
2017-11-15T05:03:04.156Z,26.20
2017-11-15T05:05:32.284Z,24.20
2017-11-15T05:08:00.361Z,26.70
2017-11-15T05:10:28.468Z,26.20
2017-11-15T05:12:57.320Z,26.07
2017-11-15T05:15:25.424Z,26.70
2017-11-15T05:17:54.273Z,25.93
2017-11-15T05:20:22.373Z,24.33
2017-11-15T05:22:50.504Z,26.17
2017-11-15T05:25:18.593Z,24.77
2017-11-15T05:27:46.692Z,27.10
2017-11-15T05:30:14.765Z,26.23
2017-11-15T05:32:43.641Z,26.80
2017-11-15T05:35:12.429Z,26.60
2017-11-15T05:37:40.521Z,26.67
2017-11-15T05:40:09.756Z,26.73
2017-11-15T05:42:38.730Z,26.53
2017-11-15T05:45:07.584Z,26.03
2017-11-15T05:47:35.662Z,27.87
2017-11-15T05:50:04.925Z,26.57
2017-11-15T05:52:33.596Z,26.93
2017-11-15T05:55:02.364Z,25.17
2017-11-15T05:57:31.257Z,26.67
2017-11-15T05:59:59.901Z,27.20
2017-11-15T06:02:28.045Z,26.57
2017-11-15T06:04:56.118Z,26.03
2017-11-15T06:07:24.220Z,26.30
2017-11-15T06:09:52.354Z,27.73
2017-11-15T06:12:21.057Z,25.70
2017-11-15T06:14:49.145Z,26.90
2017-11-15T06:17:17.836Z,26.47
2017-11-15T06:19:45.901Z,25.10
2017-11-15T06:22:14.054Z,28.40
2017-11-15T06:24:42.184Z,26.60
2017-11-15T06:27:10.294Z,25.77
2017-11-15T06:29:38.479Z,26.27
2017-11-15T06:32:06.706Z,27.23
2017-11-15T06:34:34.700Z,26.17
2017-11-15T06:37:02.911Z,27.20
2017-11-15T06:39:31.287Z,25.73
2017-11-15T06:41:59.481Z,27.83
2017-11-15T06:44:27.565Z,26.67
2017-11-15T06:46:55.677Z,27.57
2017-11-15T06:49:23.985Z,28.27
2017-11-15T06:51:52.269Z,26.53
2017-11-15T06:54:20.357Z,28.40
2017-11-15T06:56:48.528Z,27.90
2017-11-15T06:59:17.704Z,27.53
2017-11-15T07:01:45.817Z,27.30
2017-11-15T07:04:15.677Z,28.20
2017-11-15T07:06:43.797Z,27.97
2017-11-15T07:09:11.881Z,28.83
2017-11-15T07:11:40.696Z,27.00
2017-11-15T07:14:08.781Z,27.43
2017-11-15T07:16:36.881Z,28.13
2017-11-15T07:19:04.960Z,28.07
2017-11-15T07:21:33.039Z,29.27
2017-11-15T07:24:01.167Z,27.90
2017-11-15T07:26:29.293Z,26.73
2017-11-15T07:28:58.198Z,25.87
2017-11-15T07:31:27.232Z,27.90
2017-11-15T07:33:55.333Z,25.63
2017-11-15T07:36:23.449Z,26.93
2017-11-15T07:38:51.562Z,27.37
2017-11-15T07:41:19.642Z,26.33
2017-11-15T07:43:47.785Z,26.67
2017-11-15T07:46:15.993Z,28.13
2017-11-15T07:48:44.069Z,26.93
2017-11-15T07:51:12.165Z,25.13
2017-11-15T07:53:41.009Z,26.80
2017-11-15T07:56:10.406Z,27.63
2017-11-15T07:58:39.432Z,25.40
2017-11-15T08:01:07.513Z,26.73
2017-11-15T08:03:35.845Z,27.87
2017-11-15T08:06:05.037Z,28.60
2017-11-15T08:08:34.028Z,29.80
2017-11-15T08:11:02.121Z,28.00
2017-11-15T08:13:30.712Z,26.00
2017-11-15T08:15:58.813Z,27.73
2017-11-15T08:18:26.893Z,26.90
2017-11-15T08:20:55.766Z,28.17
2017-11-15T08:23:23.846Z,26.80
2017-11-15T08:25:52.710Z,28.20
2017-11-15T08:28:20.792Z,26.50
2017-11-15T08:30:49.186Z,28.70
2017-11-15T08:33:18.066Z,24.87
2017-11-15T08:35:46.158Z,24.93
2017-11-15T08:38:15.025Z,27.13
2017-11-15T08:40:43.361Z,26.47
2017-11-15T08:43:11.474Z,27.67
2017-11-15T08:45:39.732Z,25.33
2017-11-15T08:48:07.989Z,23.50
2017-11-15T08:50:36.504Z,26.50
2017-11-15T08:53:04.885Z,25.57
2017-11-15T08:55:32.985Z,25.03
2017-11-15T08:58:01.862Z,23.63
2017-11-15T09:00:30.171Z,25.77
2017-11-15T09:02:58.816Z,26.00
2017-11-15T09:05:26.950Z,27.97
2017-11-15T09:07:55.026Z,26.23
2017-11-15T09:10:23.148Z,25.00
2017-11-15T09:12:51.249Z,25.80
2017-11-15T09:15:19.426Z,28.10
2017-11-15T09:17:48.457Z,26.70
2017-11-15T09:20:16.654Z,25.30
2017-11-15T09:22:45.072Z,25.30
2017-11-15T09:25:13.185Z,25.33
2017-11-15T09:27:41.263Z,25.63
2017-11-15T09:30:10.160Z,25.10
2017-11-15T09:32:38.245Z,26.20
2017-11-15T09:35:06.535Z,25.70
2017-11-15T09:37:34.617Z,28.33
2017-11-15T09:40:03.490Z,28.03
2017-11-15T09:42:33.447Z,27.83
2017-11-15T09:45:01.569Z,26.47
2017-11-15T09:47:30.114Z,27.77
2017-11-15T09:49:58.199Z,26.50
2017-11-15T09:52:26.298Z,25.37
2017-11-15T09:54:55.048Z,25.30
2017-11-15T09:57:23.138Z,25.90
2017-11-15T09:59:51.235Z,25.67
2017-11-15T10:02:19.340Z,25.33
2017-11-15T10:04:47.440Z,26.63
2017-11-15T10:07:17.210Z,24.33
2017-11-15T10:09:46.173Z,24.93
2017-11-15T10:12:14.568Z,23.67
2017-11-15T10:14:42.650Z,24.27
2017-11-15T10:17:12.147Z,23.57
2017-11-15T10:19:40.444Z,23.87
2017-11-15T10:22:09.281Z,24.83
2017-11-15T10:24:37.400Z,22.77
2017-11-15T10:27:06.244Z,24.50
2017-11-15T10:29:34.380Z,25.30
2017-11-15T10:32:02.474Z,23.97
2017-11-15T10:34:30.606Z,22.47
2017-11-15T10:36:59.965Z,25.60
2017-11-15T10:39:28.077Z,22.80
2017-11-15T10:41:57.766Z,24.17
2017-11-15T10:44:25.841Z,24.80
2017-11-15T10:46:53.979Z,23.30
2017-11-15T10:49:22.295Z,25.90
2017-11-15T10:51:50.369Z,22.77
2017-11-15T10:54:18.458Z,23.03
2017-11-15T10:56:46.555Z,22.33
2017-11-15T10:59:14.901Z,23.07
2017-11-15T11:01:43.014Z,22.97
2017-11-15T11:04:11.620Z,21.00
2017-11-15T11:06:39.859Z,22.00
2017-11-15T11:09:08.025Z,24.40
2017-11-15T11:11:36.120Z,21.67
2017-11-15T11:14:05.721Z,22.43
2017-11-15T11:16:34.751Z,20.07
2017-11-15T11:19:02.841Z,20.80
2017-11-15T11:21:31.413Z,20.43
2017-11-15T11:23:59.532Z,20.60
2017-11-15T11:26:27.619Z,20.60
2017-11-15T11:28:55.719Z,21.27
2017-11-15T11:31:23.877Z,21.87
2017-11-15T11:33:51.985Z,22.37
2017-11-15T11:36:20.098Z,21.17
2017-11-15T11:38:48.185Z,20.40
2017-11-15T11:41:16.711Z,22.90
2017-11-15T11:43:44.809Z,21.37
2017-11-15T11:46:13.665Z,21.90
2017-11-15T11:48:41.742Z,22.90
2017-11-15T11:51:10.549Z,20.90
2017-11-15T11:53:38.665Z,20.17
2017-11-15T11:56:06.745Z,21.40
2017-11-15T11:58:34.853Z,20.17
2017-11-15T12:01:02.924Z,20.97
2017-11-15T12:03:31.009Z,21.93
2017-11-15T12:05:59.109Z,20.17
2017-11-15T12:08:27.224Z,21.10
2017-11-15T12:10:55.310Z,21.90
2017-11-15T12:13:24.685Z,22.60
2017-11-15T12:15:52.784Z,21.90
2017-11-15T12:18:20.887Z,19.87
2017-11-15T12:20:49.729Z,21.03
2017-11-15T12:23:17.830Z,21.80
2017-11-15T12:25:45.906Z,20.10
2017-11-15T12:28:14.774Z,19.77
2017-11-15T12:30:42.860Z,19.93
2017-11-15T12:33:10.950Z,20.53
2017-11-15T12:35:39.806Z,20.20
2017-11-15T12:38:07.889Z,19.33
2017-11-15T12:40:35.985Z,19.73
2017-11-15T12:43:04.853Z,21.87
2017-11-15T12:45:32.993Z,21.03
2017-11-15T12:48:01.314Z,20.10
2017-11-15T12:50:29.410Z,21.03
2017-11-15T12:52:57.510Z,19.37
2017-11-15T12:55:25.661Z,21.40
2017-11-15T12:57:53.795Z,20.60
2017-11-15T13:00:22.041Z,20.30
2017-11-15T13:02:50.125Z,22.10
2017-11-15T13:05:19.397Z,20.40
2017-11-15T13:07:47.531Z,19.53
2017-11-15T13:10:15.629Z,18.80
2017-11-15T13:12:43.720Z,18.50
2017-11-15T13:15:13.030Z,19.07
2017-11-15T13:17:41.839Z,20.40
2017-11-15T13:20:09.938Z,18.93
2017-11-15T13:22:38.840Z,17.47
2017-11-15T13:25:07.686Z,19.30
2017-11-15T13:27:35.796Z,19.87
2017-11-15T13:30:04.641Z,17.90
2017-11-15T13:32:32.858Z,20.07
2017-11-15T13:35:01.707Z,20.53
2017-11-15T13:37:29.810Z,19.70
2017-11-15T13:39:58.602Z,20.40
2017-11-15T13:42:26.684Z,18.90
2017-11-15T13:44:55.541Z,20.70
2017-11-15T13:47:23.661Z,19.97
2017-11-15T13:49:51.769Z,19.80
2017-11-15T13:52:20.679Z,20.10
2017-11-15T13:54:49.226Z,19.57
2017-11-15T13:57:18.336Z,20.83
2017-11-15T13:59:47.625Z,19.97
2017-11-15T14:02:16.489Z,18.90
2017-11-15T14:04:44.738Z,18.77
2017-11-15T14:07:12.863Z,19.83
2017-11-15T14:09:41.483Z,19.27
2017-11-15T14:12:09.561Z,18.20
2017-11-15T14:14:37.656Z,18.07
2017-11-15T14:17:06.420Z,18.90
2017-11-15T14:19:34.673Z,19.37
2017-11-15T14:22:03.688Z,19.70
2017-11-15T14:24:31.797Z,19.03
2017-11-15T14:27:00.645Z,17.40
2017-11-15T14:29:28.777Z,19.37
2017-11-15T14:31:56.876Z,19.40
2017-11-15T14:34:26.168Z,17.90
2017-11-15T14:36:55.073Z,17.87
2017-11-15T14:39:23.162Z,20.20
2017-11-15T14:41:51.260Z,18.80
2017-11-15T14:44:20.097Z,17.63
2017-11-15T14:46:48.179Z,18.53
2017-11-15T14:49:16.285Z,19.13
2017-11-15T14:51:44.362Z,17.20
2017-11-15T14:54:13.252Z,18.33
2017-11-15T14:56:42.093Z,17.27
2017-11-15T14:59:10.217Z,17.17
2017-11-15T15:01:39.083Z,18.67
2017-11-15T15:04:07.182Z,18.00
2017-11-15T15:06:36.059Z,18.30
2017-11-15T15:09:04.861Z,16.97
2017-11-15T15:11:33.161Z,19.07
2017-11-15T15:14:01.705Z,19.40
2017-11-15T15:16:29.805Z,19.93
2017-11-15T15:18:57.917Z,18.77
2017-11-15T15:21:26.931Z,16.60
2017-11-15T15:23:55.565Z,18.70
2017-11-15T15:26:24.671Z,18.83
2017-11-15T15:28:52.753Z,17.40
2017-11-15T15:31:20.876Z,17.53
2017-11-15T15:33:49.716Z,17.87
2017-11-15T15:36:17.803Z,18.10
2017-11-15T15:38:45.890Z,17.40
2017-11-15T15:41:14.058Z,18.00
2017-11-15T15:43:42.173Z,17.40
2017-11-15T15:46:11.120Z,17.80
2017-11-15T15:48:39.240Z,18.10
2017-11-15T15:51:07.338Z,17.47
2017-11-15T15:53:35.508Z,18.47
2017-11-15T15:56:03.778Z,17.00
2017-11-15T15:58:31.860Z,17.50
2017-11-15T16:01:00.748Z,17.30
2017-11-15T16:03:28.827Z,16.50
2017-11-15T16:05:57.027Z,15.97
2017-11-15T16:08:25.110Z,15.70
2017-11-15T16:10:53.248Z,17.93
2017-11-15T16:13:21.358Z,17.80
2017-11-15T16:15:49.471Z,17.77
2017-11-15T16:18:17.551Z,15.90
2017-11-15T16:20:45.646Z,17.47
2017-11-15T16:23:13.745Z,17.33
2017-11-15T16:25:41.842Z,16.77
2017-11-15T16:28:10.713Z,15.70
2017-11-15T16:30:40.546Z,16.23
2017-11-15T16:33:09.398Z,17.07
2017-11-15T16:35:37.501Z,16.60
2017-11-15T16:38:06.383Z,16.07
2017-11-15T16:40:34.473Z,16.33
2017-11-15T16:43:02.598Z,17.20
2017-11-15T16:45:30.722Z,15.77
2017-11-15T16:47:59.689Z,16.77
2017-11-15T16:50:27.789Z,26.30
2017-11-15T16:52:56.633Z,20.17
2017-11-15T16:55:24.746Z,18.87
2017-11-15T16:57:52.877Z,17.40
2017-11-15T17:00:20.990Z,17.80
2017-11-15T17:02:49.855Z,16.10
2017-11-15T17:05:17.947Z,17.00
2017-11-15T17:07:47.285Z,17.50
2017-11-15T17:10:15.390Z,17.37
2017-11-15T17:12:43.497Z,16.53
2017-11-15T17:15:11.580Z,16.40
2017-11-15T17:17:40.430Z,15.40
2017-11-15T17:20:08.523Z,20.63
2017-11-15T17:22:38.231Z,24.17
2017-11-15T17:25:07.218Z,21.93
2017-11-15T17:27:36.038Z,18.87
2017-11-15T17:30:05.351Z,18.00
2017-11-15T17:32:33.941Z,18.20
2017-11-15T17:35:02.544Z,17.33
2017-11-15T17:37:30.641Z,17.90
2017-11-15T17:39:58.729Z,16.17
2017-11-15T17:42:26.862Z,39.73
2017-11-15T17:44:54.951Z,18.93
2017-11-15T17:47:23.074Z,17.40
2017-11-15T17:49:51.204Z,14.67
2017-11-15T17:52:19.328Z,16.97
2017-11-15T17:54:47.420Z,16.07
2017-11-15T17:57:15.491Z,17.50
2017-11-15T17:59:43.580Z,15.53
2017-11-15T18:02:11.717Z,17.50
2017-11-15T18:04:39.820Z,17.17
2017-11-15T18:07:07.921Z,16.70
2017-11-15T18:09:36.011Z,17.53
2017-11-15T18:12:04.731Z,17.43
2017-11-15T18:14:32.917Z,16.00
2017-11-15T18:17:01.015Z,18.43
2017-11-15T18:19:29.106Z,30.73
2017-11-15T18:21:57.188Z,20.27
2017-11-15T18:24:27.021Z,20.40
2017-11-15T18:26:55.133Z,19.23
2017-11-15T18:29:23.220Z,23.60
2017-11-15T18:31:51.462Z,18.83
2017-11-15T18:34:19.572Z,17.40
2017-11-15T18:36:47.672Z,17.10
2017-11-15T18:39:15.784Z,17.63
2017-11-15T18:41:44.661Z,19.43
2017-11-15T18:44:12.761Z,17.70
2017-11-15T18:46:40.873Z,17.27
2017-11-15T18:49:09.725Z,18.67
2017-11-15T18:51:37.845Z,17.67
2017-11-15T18:54:06.695Z,20.93
2017-11-15T18:56:34.845Z,19.23
2017-11-15T18:59:02.996Z,20.27
2017-11-15T19:01:31.102Z,28.00
2017-11-15T19:03:59.223Z,24.33
2017-11-15T19:06:28.129Z,21.37
2017-11-15T19:08:56.255Z,19.70
2017-11-15T19:11:24.992Z,22.70
2017-11-15T19:13:53.895Z,22.63
2017-11-15T19:16:21.992Z,20.63
2017-11-15T19:18:50.103Z,20.33
2017-11-15T19:21:18.192Z,18.20
2017-11-15T19:23:46.746Z,19.77
2017-11-15T19:26:14.835Z,18.50
2017-11-15T19:28:42.930Z,17.93
2017-11-15T19:31:11.049Z,19.33
2017-11-15T19:33:39.847Z,27.43
2017-11-15T19:36:08.011Z,23.40
2017-11-15T19:38:36.111Z,18.00
2017-11-15T19:41:05.091Z,18.03
2017-11-15T19:43:33.858Z,19.17
2017-11-15T19:46:02.006Z,18.23
2017-11-15T19:48:31.152Z,18.93
2017-11-15T19:51:00.006Z,18.67
2017-11-15T19:53:28.992Z,18.07
2017-11-15T19:55:57.087Z,18.43
2017-11-15T19:58:25.195Z,19.63
2017-11-15T20:00:53.280Z,19.77
2017-11-15T20:03:21.444Z,18.40
2017-11-15T20:05:50.358Z,20.10
2017-11-15T20:08:18.446Z,18.00
2017-11-15T20:10:46.604Z,18.90
2017-11-15T20:13:14.699Z,18.60
2017-11-15T20:15:43.062Z,18.47
2017-11-15T20:18:11.151Z,18.97
2017-11-15T20:20:39.280Z,17.80
2017-11-15T20:23:07.366Z,20.00
2017-11-15T20:25:35.464Z,19.30
2017-11-15T20:28:03.578Z,17.50
2017-11-15T20:30:31.656Z,19.37
2017-11-15T20:32:59.753Z,17.37
2017-11-15T20:35:27.904Z,18.83
2017-11-15T20:37:56.797Z,17.37
2017-11-15T20:40:25.677Z,18.13
2017-11-15T20:42:53.759Z,17.07
2017-11-15T20:45:22.225Z,17.83
2017-11-15T20:47:50.362Z,17.17
2017-11-15T20:50:18.453Z,16.53
2017-11-15T20:52:46.561Z,17.77
2017-11-15T20:55:15.421Z,17.47
2017-11-15T20:57:43.544Z,15.40
2017-11-15T21:00:11.632Z,16.00
2017-11-15T21:02:39.730Z,15.23
2017-11-15T21:05:07.883Z,16.47
2017-11-15T21:07:36.052Z,15.80
2017-11-15T21:10:04.129Z,16.67
2017-11-15T21:12:32.226Z,15.37
2017-11-15T21:15:00.529Z,15.57
2017-11-15T21:17:29.385Z,16.03
2017-11-15T21:19:57.462Z,16.23
2017-11-15T21:22:25.584Z,14.10
2017-11-15T21:24:53.689Z,15.03
2017-11-15T21:27:22.119Z,15.77
2017-11-15T21:29:50.986Z,15.43
2017-11-15T21:32:19.945Z,15.87
2017-11-15T21:34:48.132Z,16.27
2017-11-15T21:37:16.236Z,15.07
2017-11-15T21:39:44.336Z,16.20
2017-11-15T21:42:12.519Z,15.33
2017-11-15T21:44:41.937Z,15.60
2017-11-15T21:47:10.237Z,15.10
2017-11-15T21:49:38.336Z,15.27
2017-11-15T21:52:06.432Z,15.40
2017-11-15T21:54:34.503Z,15.00
2017-11-15T21:57:02.604Z,12.63
2017-11-15T21:59:30.996Z,13.17
2017-11-15T22:01:59.069Z,13.10
2017-11-15T22:04:27.181Z,13.53
2017-11-15T22:06:55.275Z,13.20
2017-11-15T22:09:24.120Z,14.83
2017-11-15T22:11:52.244Z,13.57
2017-11-15T22:14:20.343Z,12.80
2017-11-15T22:16:48.429Z,13.20
2017-11-15T22:19:16.618Z,12.47
2017-11-15T22:21:44.697Z,15.00
2017-11-15T22:24:13.970Z,12.33
2017-11-15T22:26:42.119Z,14.10
2017-11-15T22:29:10.428Z,14.77
2017-11-15T22:31:38.526Z,13.37
2017-11-15T22:34:06.615Z,14.53
2017-11-15T22:36:35.525Z,12.87
2017-11-15T22:39:04.650Z,15.13
2017-11-15T22:41:32.777Z,15.47
2017-11-15T22:44:00.937Z,15.30
2017-11-15T22:46:29.076Z,15.13
2017-11-15T22:48:57.296Z,14.90
2017-11-15T22:51:26.158Z,13.37
2017-11-15T22:53:54.276Z,12.97
2017-11-15T22:56:22.354Z,12.50
2017-11-15T22:58:50.472Z,12.57
2017-11-15T23:01:18.591Z,10.67
2017-11-15T23:03:47.494Z,12.87
2017-11-15T23:06:15.659Z,12.60
2017-11-15T23:08:44.069Z,12.93
2017-11-15T23:11:12.369Z,12.93
2017-11-15T23:13:40.468Z,11.97
2017-11-15T23:16:08.581Z,13.40
2017-11-15T23:18:36.690Z,11.10
2017-11-15T23:21:04.956Z,11.10
2017-11-15T23:23:33.042Z,10.33
2017-11-15T23:26:01.320Z,11.37
2017-11-15T23:28:29.408Z,10.93
2017-11-15T23:30:58.892Z,9.73
2017-11-15T23:33:27.128Z,10.93
2017-11-15T23:35:55.438Z,10.10
2017-11-15T23:38:23.957Z,9.70
2017-11-15T23:40:52.177Z,9.20
2017-11-15T23:43:20.249Z,9.40
2017-11-15T23:45:49.552Z,9.10
2017-11-15T23:48:17.808Z,9.40
2017-11-15T23:50:45.910Z,10.07
2017-11-15T23:53:14.365Z,9.47
2017-11-15T23:55:42.498Z,9.53
2017-11-15T23:58:11.475Z,9.13
